Time;durP1;ratioP1;P1;durP2;ratioP2;P2;SDS_P1;SDS_P2;PMS_P1;PMS_P2;Temp;Humidity;BMP_temperature;BMP_pressure;BME280_temperature;BME280_humidity;BME280_pressure;Samples;Min_cycle;Max_cycle;Signal;HPM_P1;HPM_P2
2020/12/14 00:00:09;;;;;;;25.05;14.50;;;;;;;0.18;90.15;100601.66;1739199;81;23127;-47
2020/12/14 00:02:38;;;;;;;24.15;13.40;;;;;;;0.18;90.02;100602.09;1751210;81;21616;-47
2020/12/14 00:05:06;;;;;;;18.00;10.85;;;;;;;0.22;90.05;100608.88;1744526;79;21167;-47
2020/12/14 00:07:35;;;;;;;21.30;12.15;;;;;;;0.25;89.97;100613.55;1737915;81;21138;-47
2020/12/14 00:10:04;;;;;;;22.05;11.28;;;;;;;0.24;89.71;100608.38;1762450;80;21017;-47
2020/12/14 00:12:31;;;;;;;18.12;10.60;;;;;;;0.17;89.37;100606.89;1742447;81;22214;-47
2020/12/14 00:14:59;;;;;;;18.17;11.40;;;;;;;0.07;89.33;100616.33;1727674;81;21040;-47
2020/12/14 00:17:26;;;;;;;23.80;13.95;;;;;;;0.05;89.53;100618.59;1740373;81;21017;-47
2020/12/14 00:19:54;;;;;;;20.02;12.80;;;;;;;0.07;89.71;100616.33;1748804;81;21137;-47
2020/12/14 00:22:22;;;;;;;23.73;14.13;;;;;;;0.10;89.91;100617.52;1748436;81;20953;-47
2020/12/14 00:24:49;;;;;;;21.45;13.15;;;;;;;0.14;89.89;100619.58;1736620;81;21380;-47
2020/12/14 00:27:17;;;;;;;20.32;12.05;;;;;;;0.18;89.88;100615.11;1737651;81;22042;-47
2020/12/14 00:29:44;;;;;;;19.98;11.80;;;;;;;0.19;89.91;100614.20;1744520;81;21025;-47
2020/12/14 00:32:12;;;;;;;17.20;10.15;;;;;;;0.23;89.92;100611.89;1751659;79;22046;-46
2020/12/14 00:34:40;;;;;;;17.10;10.03;;;;;;;0.25;89.77;100610.08;1758433;80;21140;-47
2020/12/14 00:37:08;;;;;;;18.48;11.93;;;;;;;0.24;89.56;100616.19;1741824;81;21368;-47
2020/12/14 00:39:37;;;;;;;20.20;12.15;;;;;;;0.17;89.32;100613.41;1746692;81;21893;-47
2020/12/14 00:42:05;;;;;;;18.98;11.78;;;;;;;0.07;89.34;100618.93;1765454;79;22064;-47
2020/12/14 00:44:32;;;;;;;21.10;11.95;;;;;;;0.02;89.44;100617.41;1745199;81;20986;-47
2020/12/14 00:47:00;;;;;;;19.67;11.35;;;;;;;-0.01;89.55;100617.08;1752686;80;21123;-47
2020/12/14 00:49:27;;;;;;;18.80;10.88;;;;;;;-0.04;89.68;100619.31;1742905;81;22895;-47
2020/12/14 00:51:55;;;;;;;15.00;10.38;;;;;;;-0.02;89.88;100617.97;1749523;79;21038;-47
2020/12/14 00:54:22;;;;;;;16.52;9.80;;;;;;;-0.03;89.88;100609.30;1727658;81;21639;-47
2020/12/14 00:56:50;;;;;;;17.05;9.93;;;;;;;-0.01;89.94;100611.87;1725909;82;20985;-47
2020/12/14 00:59:17;;;;;;;16.00;9.70;;;;;;;-0.02;90.00;100615.38;1727225;81;21133;-46
2020/12/14 01:01:52;;;;;;;19.37;10.90;;;;;;;-0.03;90.04;100613.67;1730330;81;21442;-47
2020/12/14 01:04:20;;;;;;;19.10;11.65;;;;;;;-0.04;90.13;100617.18;1747879;79;21017;-47
2020/12/14 01:06:53;;;;;;;17.27;11.63;;;;;;;-0.03;90.33;100615.81;1720699;82;22250;-47
2020/12/14 01:09:21;;;;;;;20.15;11.25;;;;;;;0.01;90.45;100616.54;1746274;80;22080;-47
2020/12/14 01:11:49;;;;;;;17.55;10.98;;;;;;;0.07;90.50;100616.33;1769864;80;21108;-47
2020/12/14 01:14:17;;;;;;;17.57;11.33;;;;;;;0.13;90.55;100614.81;1724767;81;21198;-47
2020/12/14 01:16:48;;;;;;;18.55;10.72;;;;;;;0.18;90.42;100617.70;1726902;81;21139;-47
2020/12/14 01:19:15;;;;;;;16.83;10.13;;;;;;;0.21;90.35;100615.00;1744673;81;22187;-47
2020/12/14 01:21:45;;;;;;;16.37;10.58;;;;;;;0.24;90.27;100613.59;1708270;82;21132;-47
2020/12/14 01:24:12;;;;;;;18.02;11.38;;;;;;;0.22;90.12;100608.88;1739914;81;21105;-48
2020/12/14 01:26:40;;;;;;;17.05;10.93;;;;;;;0.20;90.05;100615.46;1749376;81;21354;-48
2020/12/14 01:29:08;;;;;;;19.85;11.63;;;;;;;0.20;89.92;100607.66;1728330;81;21133;-47
2020/12/14 01:31:35;;;;;;;18.37;10.28;;;;;;;0.12;89.75;100597.96;1749280;81;20999;-48
2020/12/14 01:34:03;;;;;;;18.55;11.85;;;;;;;0.08;89.74;100601.11;1749261;81;21999;-48
2020/12/14 01:36:30;;;;;;;22.70;11.73;;;;;;;0.02;89.76;100602.63;1748276;81;21142;-47
2020/12/14 01:38:58;;;;;;;18.40;12.25;;;;;;;0.02;89.96;100598.72;1733957;82;21601;-47
2020/12/14 01:41:25;;;;;;;18.92;11.78;;;;;;;0.02;89.95;100605.69;1755129;80;21002;-47
2020/12/14 01:43:53;;;;;;;19.30;11.10;;;;;;;-0.03;89.98;100606.70;1769819;80;21600;-47
2020/12/14 01:46:26;;;;;;;18.95;11.70;;;;;;;-0.04;90.28;100602.39;1736219;81;21026;-47
2020/12/14 01:48:54;;;;;;;18.17;10.98;;;;;;;-0.02;90.42;100598.45;1745701;80;22145;-47
2020/12/14 01:51:21;;;;;;;22.62;13.22;;;;;;;0.03;90.63;100595.68;1715947;81;21377;-47
2020/12/14 01:53:49;;;;;;;23.65;13.05;;;;;;;0.05;90.57;100593.88;1715994;81;21594;-47
2020/12/14 01:56:17;;;;;;;22.05;11.93;;;;;;;0.00;90.40;100596.66;1745626;81;21006;-48
2020/12/14 01:58:45;;;;;;;19.98;12.05;;;;;;;-0.07;90.34;100593.86;1727783;81;21160;-48
2020/12/14 02:01:12;;;;;;;17.98;11.10;;;;;;;-0.11;90.37;100598.77;1723627;81;22025;-48
2020/12/14 02:03:40;;;;;;;22.20;12.65;;;;;;;-0.17;90.56;100596.78;1716063;81;21388;-48
2020/12/14 02:06:07;;;;;;;21.40;12.15;;;;;;;-0.14;90.97;100597.58;1716482;81;21916;-48
2020/12/14 02:08:35;;;;;;;21.97;11.53;;;;;;;-0.09;91.16;100599.57;1715834;81;21156;-48
2020/12/14 02:11:02;;;;;;;19.98;11.22;;;;;;;0.01;91.34;100598.79;1724092;81;22093;-47
2020/12/14 02:13:31;;;;;;;18.15;11.57;;;;;;;0.04;91.21;100590.88;1734629;81;21119;-47
2020/12/14 02:15:58;;;;;;;23.67;13.68;;;;;;;0.07;91.16;100594.67;1715907;81;22103;-47
2020/12/14 02:18:26;;;;;;;21.60;12.93;;;;;;;0.06;91.01;100597.70;1715831;81;21155;-47
2020/12/14 02:20:53;;;;;;;21.10;11.83;;;;;;;0.07;91.06;100596.80;1728510;81;22126;-47
2020/12/14 02:23:21;;;;;;;18.60;12.18;;;;;;;0.08;90.84;100597.20;1741046;81;21210;-47
2020/12/14 02:25:48;;;;;;;20.43;11.73;;;;;;;0.06;90.63;100599.02;1757763;80;21596;-47
2020/12/14 02:28:16;;;;;;;21.93;11.88;;;;;;;0.04;90.46;100603.42;1724509;81;21372;-48
2020/12/14 02:30:44;;;;;;;17.15;10.08;;;;;;;0.03;90.36;100603.48;1715878;81;21182;-48
2020/12/14 02:33:12;;;;;;;21.10;11.48;;;;;;;-0.02;90.37;100609.70;1733798;81;22187;-48
2020/12/14 02:35:40;;;;;;;18.48;11.57;;;;;;;-0.08;90.39;100606.48;1756771;80;21108;-48
2020/12/14 02:38:07;;;;;;;19.30;11.90;;;;;;;-0.12;90.52;100609.62;1747287;81;21584;-48
2020/12/14 02:40:35;;;;;;;21.57;13.25;;;;;;;-0.05;90.93;100612.88;1745007;81;21352;-47
2020/12/14 02:43:02;;;;;;;16.60;10.85;;;;;;;0.06;91.25;100618.53;1747529;80;21166;-47
2020/12/14 02:45:30;;;;;;;20.32;12.20;;;;;;;0.17;91.20;100609.06;1722389;81;20988;-48
2020/12/14 02:47:57;;;;;;;19.98;11.70;;;;;;;0.22;90.95;100612.36;1734498;81;22041;-48
2020/12/14 02:50:25;;;;;;;16.67;10.00;;;;;;;0.25;90.73;100611.38;1725169;80;21157;-48
2020/12/14 02:52:52;;;;;;;18.50;11.48;;;;;;;0.28;90.58;100608.67;1728817;81;21559;-47
2020/12/14 02:55:20;;;;;;;17.32;10.53;;;;;;;0.28;90.53;100613.44;1720880;80;21145;-47
2020/12/14 02:57:47;;;;;;;17.32;10.30;;;;;;;0.30;90.48;100610.77;1723792;81;21129;-47
2020/12/14 03:00:15;;;;;;;19.98;11.95;;;;;;;0.33;90.46;100607.22;1720027;81;22161;-47
2020/12/14 03:02:42;;;;;;;17.23;10.75;;;;;;;0.27;89.98;100609.58;1728517;81;21155;-47
2020/12/14 03:05:10;;;;;;;19.73;10.82;;;;;;;0.24;90.08;100607.08;1720877;81;21432;-47
2020/12/14 03:07:38;;;;;;;18.23;11.05;;;;;;;0.23;89.90;100609.28;1722291;81;21137;-47
2020/12/14 03:10:06;;;;;;;16.77;11.03;;;;;;;0.14;89.72;100603.97;1718302;81;21557;-47
2020/12/14 03:12:33;;;;;;;16.57;10.05;;;;;;;0.06;89.73;100600.31;1720904;81;21609;-47
2020/12/14 03:15:01;;;;;;;14.75;9.38;;;;;;;0.03;89.84;100600.88;1711887;81;21151;-47
2020/12/14 03:17:28;;;;;;;19.50;10.08;;;;;;;0.00;89.92;100596.66;1733061;81;21212;-47
2020/12/14 03:19:56;;;;;;;17.37;10.45;;;;;;;-0.01;89.98;100602.76;1747857;79;22249;-47
2020/12/14 03:22:24;;;;;;;17.10;10.93;;;;;;;-0.04;90.10;100601.56;1724598;82;21148;-47
2020/12/14 03:24:51;;;;;;;18.52;10.55;;;;;;;-0.01;90.46;100598.39;1708527;82;21483;-48
2020/12/14 03:27:19;;;;;;;18.32;10.68;;;;;;;0.06;90.69;100592.50;1744862;81;21107;-48
2020/12/14 03:29:46;;;;;;;19.92;10.88;;;;;;;0.10;90.61;100593.27;1744624;81;22954;-48
2020/12/14 03:32:14;;;;;;;15.68;9.98;;;;;;;0.18;90.65;100587.77;1753314;81;21225;-48
2020/12/14 03:34:42;;;;;;;18.73;10.00;;;;;;;0.22;90.52;100590.66;1754358;80;21627;-47
2020/12/14 03:37:10;;;;;;;16.00;9.53;;;;;;;0.23;90.39;100591.92;1742827;81;21613;-48
2020/12/14 03:39:37;;;;;;;19.05;10.88;;;;;;;0.26;90.45;100596.16;1741192;81;21129;-48
2020/12/14 03:42:05;;;;;;;15.58;9.85;;;;;;;0.27;90.32;100596.55;1768680;80;21411;-48
2020/12/14 03:44:32;;;;;;;19.60;11.25;;;;;;;0.26;90.22;100600.06;1736954;81;21147;-48
2020/12/14 03:46:59;;;;;;;15.78;9.98;;;;;;;0.22;89.91;100598.47;1744155;81;21707;-47
2020/12/14 03:49:27;;;;;;;18.90;10.35;;;;;;;0.14;89.63;100596.98;1708323;82;21612;-46
2020/12/14 03:51:55;;;;;;;16.10;10.03;;;;;;;0.10;89.59;100601.91;1759804;80;21127;-46
2020/12/14 03:54:22;;;;;;;16.67;9.58;;;;;;;0.06;89.72;100598.17;1735619;81;21419;-46
2020/12/14 03:56:50;;;;;;;15.10;9.35;;;;;;;0.08;89.93;100601.58;1757581;80;21144;-47
2020/12/14 03:59:18;;;;;;;17.12;10.50;;;;;;;0.14;90.27;100602.20;1736764;81;21140;-47
2020/12/14 04:01:45;;;;;;;17.32;9.88;;;;;;;0.23;90.35;100602.77;1748433;79;21132;-47
2020/12/14 04:04:13;;;;;;;17.92;10.80;;;;;;;0.28;90.16;100612.14;1765394;80;21131;-47
2020/12/14 04:06:41;;;;;;;16.12;10.18;;;;;;;0.27;89.91;100609.58;1750748;80;21385;-47
2020/12/14 04:09:08;;;;;;;15.20;9.48;;;;;;;0.28;89.85;100606.93;1731472;81;21148;-47
2020/12/14 04:11:36;;;;;;;15.85;9.08;;;;;;;0.29;89.66;100607.77;1730936;81;21126;-47
2020/12/14 04:14:04;;;;;;;14.87;9.05;;;;;;;0.23;89.43;100615.80;1727288;81;21028;-48
2020/12/14 04:16:32;;;;;;;15.25;8.68;;;;;;;0.13;89.32;100608.77;1722346;81;21148;-47
2020/12/14 04:18:59;;;;;;;13.83;8.48;;;;;;;0.10;89.38;100612.78;1731577;81;21224;-47
2020/12/14 04:21:27;;;;;;;13.93;8.38;;;;;;;0.10;89.42;100617.99;1731907;81;21180;-47
2020/12/14 04:23:54;;;;;;;17.48;10.20;;;;;;;0.08;89.42;100619.33;1726014;81;22103;-47
2020/12/14 04:26:22;;;;;;;14.98;8.73;;;;;;;0.04;89.41;100622.94;1744044;79;21170;-49
2020/12/14 04:28:49;;;;;;;17.65;10.35;;;;;;;0.03;89.47;100626.91;1729281;82;21616;-47
2020/12/14 04:31:17;;;;;;;14.63;8.73;;;;;;;0.02;89.59;100618.23;1750665;81;21355;-48
2020/12/14 04:33:44;;;;;;;22.13;11.28;;;;;;;0.06;89.78;100619.83;1746868;81;21147;-47
2020/12/14 04:36:13;;;;;;;22.07;11.68;;;;;;;0.08;89.80;100619.33;1749745;81;21135;-48
2020/12/14 04:38:41;;;;;;;24.12;12.73;;;;;;;0.10;89.78;100618.83;1747578;81;21127;-47
2020/12/14 04:41:08;;;;;;;28.35;13.98;;;;;;;0.17;89.88;100619.48;1748672;81;21141;-48
2020/12/14 04:43:36;;;;;;;21.65;12.15;;;;;;;0.27;90.18;100625.20;1756735;81;22696;-48
2020/12/14 04:46:04;;;;;;;30.05;15.25;;;;;;;0.36;90.19;100624.03;1744985;81;21115;-48
2020/12/14 04:48:31;;;;;;;24.47;12.80;;;;;;;0.40;90.02;100626.45;1744723;81;21254;-47
2020/12/14 04:50:59;;;;;;;21.27;11.55;;;;;;;0.43;89.80;100629.42;1752916;81;21200;-48
2020/12/14 04:53:27;;;;;;;19.45;11.05;;;;;;;0.36;89.29;100628.77;1744575;81;21159;-48
2020/12/14 04:55:56;;;;;;;17.40;10.55;;;;;;;0.26;89.14;100635.21;1755063;81;23114;-48
2020/12/14 04:58:23;;;;;;;17.42;11.60;;;;;;;0.21;89.10;100637.99;1751270;81;22213;-47
2020/12/14 05:00:51;;;;;;;19.62;11.55;;;;;;;0.20;89.30;100641.94;1752367;81;21176;-48
2020/12/14 05:03:18;;;;;;;21.45;11.93;;;;;;;0.24;89.56;100642.22;1744759;81;21819;-47
2020/12/14 05:05:57;;;;;;;18.98;10.98;;;;;;;0.24;89.50;100646.13;1744696;81;21123;-47
2020/12/14 05:08:26;;;;;;;20.30;11.38;;;;;;;0.25;89.49;100653.03;1752016;81;21199;-47
2020/12/14 05:10:54;;;;;;;15.50;9.25;;;;;;;0.25;89.46;100654.34;1744619;81;21017;-47
2020/12/14 05:13:26;;;;;;;16.05;8.78;;;;;;;0.31;89.55;100657.20;1713375;81;21628;-48
2020/12/14 05:15:55;;;;;;;15.85;9.38;;;;;;;0.32;89.48;100653.22;1734837;81;21155;-48
2020/12/14 05:18:23;;;;;;;18.60;10.70;;;;;;;0.33;89.47;100660.59;1745858;81;21635;-47
2020/12/14 05:21:04;;;;;;;14.18;7.85;;;;;;;0.32;89.28;100660.20;1751992;81;21381;-47
2020/12/14 05:23:32;;;;;;;19.00;11.03;;;;;;;0.31;89.16;100663.24;1753491;81;21137;-47
2020/12/14 05:26:09;;;;;;;14.78;9.15;;;;;;;0.28;88.97;100662.05;1744877;81;22158;-48
2020/12/14 05:28:37;;;;;;;16.45;9.75;;;;;;;0.31;89.16;100667.15;1764050;80;21153;-47
2020/12/14 05:31:05;;;;;;;12.53;8.05;;;;;;;0.32;89.07;100661.50;1770516;80;22002;-47
2020/12/14 05:33:32;;;;;;;15.65;9.40;;;;;;;0.35;89.21;100667.44;1770285;80;21430;-47
2020/12/14 05:36:00;;;;;;;15.18;9.70;;;;;;;0.39;89.24;100666.89;1770411;80;21627;-48
2020/12/14 05:38:30;;;;;;;14.65;9.00;;;;;;;0.38;89.12;100666.50;1770321;80;21132;-48
2020/12/14 05:41:01;;;;;;;15.05;8.35;;;;;;;0.38;89.02;100660.82;1770501;80;21123;-48
2020/12/14 05:43:32;;;;;;;15.08;8.58;;;;;;;0.32;88.61;100664.11;1770147;80;21147;-47
2020/12/14 05:46:17;;;;;;;14.58;8.68;;;;;;;0.22;88.53;100664.86;1770283;80;21372;-47
2020/12/14 05:48:45;;;;;;;13.15;8.25;;;;;;;0.21;88.65;100669.23;1755447;80;22030;-47
2020/12/14 05:51:13;;;;;;;13.93;8.60;;;;;;;0.26;89.00;100670.36;1734310;82;21121;-47
2020/12/14 05:53:51;;;;;;;15.25;10.13;;;;;;;0.29;89.10;100676.33;1728564;82;21625;-47
2020/12/14 05:56:19;;;;;;;15.00;8.60;;;;;;;0.32;89.10;100676.66;1715226;82;21603;-47
2020/12/14 05:58:51;;;;;;;14.00;8.90;;;;;;;0.31;88.94;100674.95;1718186;80;21363;-47
2020/12/14 06:01:19;;;;;;;14.28;7.70;;;;;;;0.26;88.80;100681.64;1741849;81;20965;-47
2020/12/14 06:03:46;;;;;;;14.20;8.38;;;;;;;0.25;89.00;100678.64;1735478;80;21722;-47
2020/12/14 06:06:14;;;;;;;13.90;7.87;;;;;;;0.26;88.95;100689.45;1698856;81;21172;-48
2020/12/14 06:08:56;;;;;;;16.93;8.90;;;;;;;0.23;88.82;100687.39;1741452;81;21171;-48
2020/12/14 06:11:26;;;;;;;15.63;9.03;;;;;;;0.20;88.64;100703.11;1731644;81;21164;-47
2020/12/14 06:13:58;;;;;;;15.45;9.38;;;;;;;0.12;88.52;100703.39;1733701;81;21178;-47
2020/12/14 06:16:31;;;;;;;18.73;10.90;;;;;;;0.08;88.63;100705.23;1737874;81;21143;-47
2020/12/14 06:18:59;;;;;;;21.23;12.28;;;;;;;0.12;88.69;100707.30;1744231;79;21627;-47
2020/12/14 06:21:56;;;;;;;17.95;9.78;;;;;;;0.10;88.58;100713.00;1708354;82;21136;-47
2020/12/14 06:24:23;;;;;;;19.37;11.40;;;;;;;0.09;88.69;100721.24;1750473;81;21187;-47
2020/12/14 06:26:51;;;;;;;19.00;11.40;;;;;;;0.10;88.68;100716.91;1747379;81;21167;-48
2020/12/14 06:29:35;;;;;;;21.25;11.90;;;;;;;0.13;88.65;100724.14;1744698;81;21158;-47
2020/12/14 06:32:03;;;;;;;17.30;10.00;;;;;;;0.20;88.73;100723.51;1746218;81;21633;-47
2020/12/14 06:34:37;;;;;;;19.65;11.80;;;;;;;0.32;89.00;100719.63;1756687;81;21136;-47
2020/12/14 06:37:05;;;;;;;20.68;12.18;;;;;;;0.38;88.84;100726.39;1747484;81;21368;-47
2020/12/14 06:39:37;;;;;;;20.82;12.03;;;;;;;0.41;88.79;100727.59;1761895;80;21149;-47
2020/12/14 06:42:11;;;;;;;20.88;11.88;;;;;;;0.41;88.61;100731.50;1767361;80;21611;-47
2020/12/14 06:44:50;;;;;;;22.70;13.20;;;;;;;0.36;88.37;100738.15;1770401;80;21107;-47
2020/12/14 06:47:18;;;;;;;18.23;12.05;;;;;;;0.31;88.25;100730.11;1770582;80;21960;-48
2020/12/14 06:49:47;;;;;;;19.85;11.63;;;;;;;0.31;88.44;100727.03;1768895;80;21356;-47
2020/12/14 06:52:35;;;;;;;21.02;12.85;;;;;;;0.32;88.35;100724.00;1768339;80;20993;-48
2020/12/14 06:55:02;;;;;;;21.57;12.60;;;;;;;0.28;88.45;100726.70;1769920;80;21654;-47
2020/12/14 06:57:39;;;;;;;22.05;12.73;;;;;;;0.37;88.79;100725.53;1770047;80;21127;-47
2020/12/14 07:00:07;;;;;;;19.12;11.90;;;;;;;0.45;88.86;100723.98;1766867;80;21112;-47
2020/12/14 07:02:39;;;;;;;20.25;11.88;;;;;;;0.53;88.70;100719.79;1732614;81;23092;-48
2020/12/14 07:05:32;;;;;;;20.30;12.10;;;;;;;0.52;88.29;100725.91;1750371;80;22204;-47
2020/12/14 07:07:59;;;;;;;21.02;12.18;;;;;;;0.42;88.04;100722.78;1770424;79;21124;-47
2020/12/14 07:10:29;;;;;;;17.95;12.23;;;;;;;0.33;88.18;100723.93;1773177;79;21113;-47
2020/12/14 07:12:58;;;;;;;16.93;11.00;;;;;;;0.32;88.41;100729.20;1773868;79;21434;-48
2020/12/14 07:15:32;;;;;;;16.97;10.10;;;;;;;0.32;88.52;100723.53;1740633;80;21462;-48
2020/12/14 07:18:03;;;;;;;21.80;11.83;;;;;;;0.33;88.57;100734.81;1747828;80;21132;-48
2020/12/14 07:20:31;;;;;;;31.23;13.03;;;;;;;0.35;88.79;100731.70;1741485;80;21129;-48
2020/12/14 07:23:07;;;;;;;24.90;13.62;;;;;;;0.41;88.97;100725.82;1743781;80;21133;-48
2020/12/14 07:25:34;;;;;;;20.25;11.80;;;;;;;0.47;88.94;100722.17;1739002;80;21703;-47
2020/12/14 07:28:03;;;;;;;23.27;11.85;;;;;;;0.51;88.79;100729.41;1743069;80;22654;-48
2020/12/14 07:30:30;;;;;;;19.65;11.22;;;;;;;0.48;88.59;100728.22;1740936;80;21066;-48
2020/12/14 07:32:59;;;;;;;17.42;10.45;;;;;;;0.48;88.65;100732.13;1747014;80;21121;-48
2020/12/14 07:35:27;;;;;;;17.00;11.10;;;;;;;0.47;88.64;100726.08;1746427;80;22159;-48
2020/12/14 07:37:55;;;;;;;15.25;9.73;;;;;;;0.50;88.67;100727.71;1746641;80;21168;-48
2020/12/14 07:40:23;;;;;;;17.65;9.98;;;;;;;0.51;88.55;100732.02;1747887;80;21358;-48
2020/12/14 07:42:50;;;;;;;15.75;8.93;;;;;;;0.43;88.42;100737.50;1748930;80;21068;-48
2020/12/14 07:45:20;;;;;;;19.52;11.85;;;;;;;0.33;88.44;100738.25;1745441;80;21134;-48
2020/12/14 07:47:51;;;;;;;24.10;14.20;;;;;;;0.25;88.65;100742.43;1747899;80;21870;-48
2020/12/14 07:50:28;;;;;;;20.77;12.93;;;;;;;0.31;89.09;100741.36;1847020;74;22539;-48
2020/12/14 07:52:56;;;;;;;22.85;13.70;;;;;;;0.33;89.27;100748.67;1827791;77;22499;-48
2020/12/14 07:55:26;;;;;;;17.52;11.33;;;;;;;0.38;89.32;100755.04;1831605;77;22547;-48
2020/12/14 07:57:54;;;;;;;18.50;11.80;;;;;;;0.44;89.26;100755.67;1829347;77;21533;-48
2020/12/14 08:00:24;;;;;;;16.57;9.73;;;;;;;0.43;89.10;100757.04;1831979;77;21030;-48
2020/12/14 08:03:00;;;;;;;17.62;11.00;;;;;;;0.46;89.16;100756.94;1861182;74;21050;-48
2020/12/14 08:05:21;;;;;;;17.40;10.98;;;;;;;0.49;89.09;100758.13;1867463;74;21062;-47
2020/12/14 08:07:56;;;;;;;15.30;9.98;;;;;;;0.47;88.80;100761.68;1872256;75;22757;-47
2020/12/14 08:13:13;;;;;;;19.73;11.50;;;;;;;0.33;88.98;100747.83;1851468;76;22685;-47
2020/12/14 08:15:44;;;;;;;18.82;11.35;;;;;;;0.24;89.11;100748.98;1805954;76;21173;-48
2020/12/14 08:18:12;;;;;;;28.20;15.95;;;;;;;0.21;89.29;100755.58;1806953;76;21875;-48
2020/12/14 08:20:43;;;;;;;25.80;15.03;;;;;;;0.17;89.39;100756.16;1806265;76;21039;-47
2020/12/14 08:23:18;;;;;;;18.27;10.78;;;;;;;0.17;89.74;100754.84;1806362;76;22517;-47
2020/12/14 08:25:49;;;;;;;17.62;10.82;;;;;;;0.26;90.04;100764.09;1821332;77;22363;-48
2020/12/14 08:28:33;;;;;;;18.60;11.10;;;;;;;0.34;90.15;100763.86;1817890;76;21161;-48
2020/12/14 08:31:05;;;;;;;23.87;13.88;;;;;;;0.37;90.02;100763.28;1771792;79;22878;-48
2020/12/14 08:33:33;;;;;;;21.40;13.53;;;;;;;0.43;90.03;100761.78;1758725;80;21086;-47
2020/12/14 08:36:09;;;;;;;20.80;12.95;;;;;;;0.55;90.06;100763.57;1762721;80;22587;-47
2020/12/14 08:38:36;;;;;;;19.07;12.82;;;;;;;0.66;89.96;100760.58;1753084;79;22065;-47
2020/12/14 08:41:05;;;;;;;18.10;11.80;;;;;;;0.77;89.67;100761.06;1763142;79;21188;-47
2020/12/14 08:43:34;;;;;;;19.17;11.75;;;;;;;0.80;89.03;100755.73;1754293;79;21627;-47
2020/12/14 08:46:09;;;;;;;22.30;13.62;;;;;;;0.76;88.50;100750.70;1753617;79;21880;-47
2020/12/14 08:48:54;;;;;;;22.40;13.22;;;;;;;0.64;88.14;100753.27;1758544;79;21172;-47
2020/12/14 08:51:28;;;;;;;23.90;14.58;;;;;;;0.55;88.15;100748.77;1749534;79;21177;-47
2020/12/14 08:53:58;;;;;;;22.70;14.20;;;;;;;0.53;88.35;100742.77;1748986;80;21543;-47
2020/12/14 08:56:33;;;;;;;22.13;13.58;;;;;;;0.56;88.52;100736.62;1769710;80;21971;-47
2020/12/14 08:59:01;;;;;;;20.23;13.22;;;;;;;0.69;88.85;100732.68;1769711;80;21648;-47
2020/12/14 09:01:31;;;;;;;20.23;12.93;;;;;;;0.79;88.70;100731.05;1768464;80;21254;-48
2020/12/14 09:04:01;;;;;;;21.17;14.00;;;;;;;0.87;88.66;100725.95;1760615;79;21148;-48
2020/12/14 09:06:36;;;;;;;21.68;12.18;;;;;;;0.92;88.20;100727.53;1747835;80;20971;-48
2020/12/14 09:09:14;;;;;;;19.65;12.55;;;;;;;0.94;87.91;100728.33;1727243;80;21368;-47
2020/12/14 09:11:49;;;;;;;21.75;13.25;;;;;;;0.90;87.66;100728.91;1774699;79;21169;-47
2020/12/14 09:14:22;;;;;;;18.73;12.07;;;;;;;0.93;87.74;100722.28;1774045;80;21633;-47
2020/12/14 09:16:53;;;;;;;17.60;10.95;;;;;;;0.93;87.51;100718.37;1774887;80;21065;-48
2020/12/14 09:19:22;;;;;;;20.70;13.22;;;;;;;0.90;87.31;100714.58;1774958;80;20974;-48
2020/12/14 09:21:50;;;;;;;19.52;12.50;;;;;;;0.82;87.22;100703.11;1774593;80;22147;-48
2020/12/14 09:24:20;;;;;;;18.77;12.45;;;;;;;0.76;87.37;100698.59;1773790;80;21014;-48
2020/12/14 09:26:49;;;;;;;18.10;12.75;;;;;;;0.75;87.64;100702.09;1773689;80;21915;-48
2020/12/14 09:29:17;;;;;;;21.27;12.55;;;;;;;0.80;87.67;100711.44;1773765;80;21969;-48
2020/12/14 09:31:51;;;;;;;19.82;12.53;;;;;;;0.83;87.70;100710.02;1773773;80;22146;-48
2020/12/14 09:34:20;;;;;;;22.75;11.78;;;;;;;0.85;87.51;100709.98;1768676;80;21491;-48
2020/12/14 09:36:54;;;;;;;20.23;12.70;;;;;;;0.80;87.40;100708.00;1773737;80;21019;-48
2020/12/14 09:39:23;;;;;;;18.92;12.30;;;;;;;0.71;87.44;100707.42;1770713;80;20975;-48
2020/12/14 09:41:51;;;;;;;19.95;11.65;;;;;;;0.67;87.68;100704.96;1774117;80;22091;-46
2020/12/14 09:44:19;;;;;;;17.32;10.98;;;;;;;0.69;87.85;100711.84;1768874;79;21211;-47
2020/12/14 09:46:47;;;;;;;17.73;12.03;;;;;;;0.69;87.84;100710.97;1758437;79;21371;-48
2020/12/14 09:49:15;;;;;;;18.50;11.28;;;;;;;0.72;87.86;100703.05;1767009;79;22141;-47
2020/12/14 09:51:42;;;;;;;19.20;12.28;;;;;;;0.77;87.73;100714.62;1745999;79;20995;-47
2020/12/14 09:54:10;;;;;;;17.05;10.75;;;;;;;0.80;87.62;100711.44;1744759;79;22081;-47
2020/12/14 09:56:37;;;;;;;18.02;12.15;;;;;;;0.86;87.66;100719.03;1743033;80;21260;-47
2020/12/14 09:59:05;;;;;;;17.90;11.03;;;;;;;0.85;87.11;100720.41;1751940;79;21395;-47
2020/12/14 10:01:32;;;;;;;18.25;11.50;;;;;;;0.78;87.04;100722.37;1754181;79;22175;-47
2020/12/14 10:04:00;;;;;;;19.37;11.97;;;;;;;0.75;87.10;100728.99;1747503;80;22132;-47
2020/12/14 10:06:29;;;;;;;22.20;13.88;;;;;;;0.68;87.02;100730.98;1757987;80;21129;-47
2020/12/14 10:08:57;;;;;;;22.02;12.00;;;;;;;0.65;87.21;100734.12;1768706;79;21084;-47
2020/12/14 10:11:27;;;;;;;27.95;14.50;;;;;;;0.64;87.29;100739.81;1772010;80;23039;-48
2020/12/14 10:13:55;;;;;;;23.80;14.58;;;;;;;0.64;87.44;100744.15;1765819;80;21238;-47
2020/12/14 10:16:23;;;;;;;26.68;16.12;;;;;;;0.72;87.69;100739.52;1772714;79;21144;-47
2020/12/14 10:18:51;;;;;;;27.20;16.75;;;;;;;0.73;87.59;100745.13;1773564;80;20983;-47
2020/12/14 10:21:19;;;;;;;24.72;16.45;;;;;;;0.78;87.83;100752.80;1773748;80;21015;-47
2020/12/14 10:23:47;;;;;;;25.80;16.85;;;;;;;0.87;88.01;100752.01;1773769;80;22581;-47
2020/12/14 10:26:15;;;;;;;28.12;16.75;;;;;;;0.94;87.98;100753.95;1773539;80;20955;-47
2020/12/14 10:28:42;;;;;;;29.72;17.07;;;;;;;1.03;87.92;100758.84;1773047;80;21050;-47
2020/12/14 10:31:10;;;;;;;23.67;14.55;;;;;;;1.10;87.70;100750.77;1773766;80;21109;-47
2020/12/14 10:33:38;;;;;;;28.02;16.73;;;;;;;1.06;87.04;100746.60;1773842;80;21729;-48
2020/12/14 10:36:09;;;;;;;33.73;17.67;;;;;;;1.01;86.70;100744.14;1769785;80;21417;-47
2020/12/14 10:38:36;;;;;;;49.98;22.67;;;;;;;0.96;86.78;100744.77;1773926;80;22233;-47
2020/12/14 10:41:04;;;;;;;29.02;17.25;;;;;;;1.02;87.17;100742.80;1763438;80;21134;-47
2020/12/14 10:43:32;;;;;;;31.20;18.20;;;;;;;1.12;87.12;100739.83;1767716;80;21010;-47
2020/12/14 10:45:59;;;;;;;24.55;15.03;;;;;;;1.15;86.75;100737.11;1773800;80;22085;-47
2020/12/14 10:48:27;;;;;;;29.57;17.42;;;;;;;1.15;86.40;100739.27;1773754;80;21370;-48
2020/12/14 10:50:55;;;;;;;29.00;16.48;;;;;;;1.11;85.99;100742.91;1773818;80;22099;-48
2020/12/14 10:53:23;;;;;;;26.10;14.83;;;;;;;1.01;85.90;100735.89;1773795;80;21006;-48
2020/12/14 10:55:52;;;;;;;24.87;15.03;;;;;;;0.92;86.11;100740.12;1773758;80;21023;-48
2020/12/14 10:58:20;;;;;;;21.48;14.25;;;;;;;0.87;86.47;100744.19;1773689;80;20983;-48
2020/12/14 11:00:48;;;;;;;26.10;15.23;;;;;;;0.83;86.79;100745.20;1773438;80;21951;-48
2020/12/14 11:03:17;;;;;;;24.45;15.80;;;;;;;0.79;87.15;100737.09;1772242;80;21140;-48
2020/12/14 11:05:45;;;;;;;30.02;16.05;;;;;;;0.84;87.56;100744.30;1773907;80;21793;-48
2020/12/14 11:08:15;;;;;;;25.72;14.95;;;;;;;0.92;87.73;100737.52;1771435;80;20943;-48
2020/12/14 11:10:42;;;;;;;24.95;16.12;;;;;;;0.98;87.66;100742.52;1771848;80;21953;-48
2020/12/14 11:13:10;;;;;;;22.90;13.55;;;;;;;1.02;87.55;100745.84;1766245;80;21170;-48
2020/12/14 11:15:38;;;;;;;28.23;14.73;;;;;;;1.15;87.94;100739.71;1772079;80;20983;-48
2020/12/14 11:18:05;;;;;;;23.75;15.10;;;;;;;1.31;88.21;100741.31;1752175;80;22302;-47
2020/12/14 11:20:33;;;;;;;22.60;14.80;;;;;;;1.44;88.29;100737.77;1771670;80;20999;-46
2020/12/14 11:23:00;;;;;;;20.17;13.35;;;;;;;1.58;88.09;100740.70;1772346;80;20971;-47
2020/12/14 11:25:28;;;;;;;25.10;13.30;;;;;;;1.68;87.50;100739.03;1752169;80;22759;-47
2020/12/14 11:27:56;;;;;;;27.22;13.88;;;;;;;1.62;86.44;100739.66;1752078;80;21181;-49